| time (UTC) | temp C | wind direction | speed KPH | gust KPH | rain 1hr cm | rain 24hr cm | rain mn cm | humidity % | barometer mb |
| 20260507110115 | 8 | 203 | 0.0 | 0.0 | 0.00 | 0.00 | 0.00 | 89 | 1028.0 |
| 20260507105614 | 8 | 225 | 0.0 | 0.0 | 0.00 | 0.00 | 0.00 | 89 | 1028.0 |
| 20260507105114 | 8 | 158 | 0.0 | 0.0 | 0.00 | 0.00 | 0.00 | 89 | 1028.0 |
| 20260507104615 | 8 | 113 | 0.0 | 0.0 | 0.00 | 0.00 | 0.00 | 89 | 1028.0 |
| 20260507104116 | 8 | 180 | 0.0 | 0.0 | 0.00 | 0.00 | 0.00 | 88 | 1028.0 |
| 20260507103615 | 8 | 158 | 0.0 | 0.0 | 0.00 | 0.00 | 0.00 | 88 | 1028.0 |
| 20260507103115 | 9 | 135 | 0.0 | 0.0 | 0.00 | 0.00 | 0.00 | 87 | 1028.0 |
| 20260507102615 | 9 | 90 | 0.0 | 0.0 | 0.00 | 0.00 | 0.00 | 86 | 1028.0 |
| 20260507102115 | 9 | 113 | 0.0 | 0.0 | 0.00 | 0.00 | 0.00 | 87 | 1028.0 |
| 20260507101614 | 9 | 90 | 0.0 | 0.0 | 0.00 | 0.00 | 0.00 | 86 | 1028.0 |
| 20260507101117 | 9 | 90 | 0.0 | 0.0 | 0.00 | 0.00 | 0.00 | 86 | 1028.0 |
| 20260507100615 | 9 | 293 | 0.0 | 0.0 | 0.00 | 0.00 | 0.00 | 86 | 1028.0 |
| 20260507100122 | 9 | 113 | 0.0 | 0.0 | 0.00 | 0.00 | 0.00 | 86 | 1028.0 |
| 20260507095614 | 9 | 90 | 0.0 | 0.0 | 0.00 | 0.00 | 0.00 | 85 | 1028.0 |
| 20260507095114 | 9 | 158 | 0.0 | 0.0 | 0.00 | 0.00 | 0.00 | 85 | 1028.0 |
| 20260507094615 | 9 | 113 | 0.0 | 0.0 | 0.00 | 0.00 | 0.00 | 85 | 1028.0 |
| 20260507094116 | 9 | 45 | 0.0 | 0.0 | 0.00 | 0.00 | 0.00 | 85 | 1028.0 |
| 20260507093614 | 10 | 68 | 0.0 | 0.0 | 0.00 | 0.00 | 0.00 | 84 | 1028.0 |
| 20260507093115 | 10 | 270 | 0.0 | 0.0 | 0.00 | 0.00 | 0.00 | 84 | 1028.0 |
| 20260507092614 | 10 | 225 | 0.0 | 0.0 | 0.00 | 0.00 | 0.00 | 84 | 1028.0 |
| 20260507092115 | 10 | 293 | 1.6 | 3.2 | 0.00 | 0.00 | 0.00 | 84 | 1028.0 |
| 20260507091615 | 10 | 248 | 1.6 | 3.2 | 0.00 | 0.00 | 0.00 | 84 | 1028.0 |
| 20260507091115 | 10 | 293 | 1.6 | 3.2 | 0.00 | 0.00 | 0.00 | 83 | 1028.0 |
| 20260507090615 | 10 | 248 | 0.0 | 0.0 | 0.00 | 0.00 | 0.00 | 83 | 1029.0 |
| 20260507090115 | 10 | 270 | 3.2 | 4.8 | 0.00 | 0.00 | 0.00 | 83 | 1028.0 |
| 20260507085614 | 10 | 293 | 3.2 | 3.2 | 0.00 | 0.00 | 0.00 | 83 | 1029.0 |
| 20260507085115 | 10 | 293 | 0.0 | 1.6 | 0.00 | 0.00 | 0.00 | 83 | 1028.0 |
| 20260507084615 | 10 | 248 | 1.6 | 3.2 | 0.00 | 0.00 | 0.00 | 83 | 1029.0 |
| 20260507084114 | 10 | 270 | 1.6 | 1.6 | 0.00 | 0.00 | 0.00 | 84 | 1029.0 |
| 20260507083127 | 10 | 270 | 3.2 | 3.2 | 0.00 | 0.00 | 0.00 | 84 | 1029.0 |
| 20260507082615 | 10 | 293 | 0.0 | 0.0 | 0.00 | 0.00 | 0.00 | 84 | 1029.0 |
| 20260507082114 | 10 | 248 | 3.2 | 4.8 | 0.00 | 0.00 | 0.00 | 84 | 1029.0 |
| 20260507081615 | 10 | 248 | 4.8 | 6.4 | 0.00 | 0.00 | 0.00 | 83 | 1029.0 |
| 20260507081115 | 10 | 248 | 1.6 | 3.2 | 0.00 | 0.00 | 0.00 | 83 | 1028.0 |
| 20260507080614 | 10 | 270 | 1.6 | 3.2 | 0.00 | 0.00 | 0.00 | 83 | 1028.0 |
| 20260507080115 | 10 | 293 | 1.6 | 3.2 | 0.00 | 0.00 | 0.00 | 83 | 1029.0 |
| 20260507075614 | 10 | 293 | 3.2 | 3.2 | 0.00 | 0.00 | 0.00 | 83 | 1029.0 |
| 20260507075116 | 10 | 225 | 0.0 | 0.0 | 0.00 | 0.00 | 0.00 | 83 | 1029.0 |
| 20260507074615 | 10 | 0 | 0.0 | 1.6 | 0.00 | 0.00 | 0.00 | 83 | 1029.0 |
| 20260507074115 | 10 | 248 | 4.8 | 6.4 | 0.00 | 0.00 | 0.00 | 82 | 1029.0 |
| 20260507073614 | 10 | 270 | 1.6 | 3.2 | 0.00 | 0.00 | 0.00 | 82 | 1029.0 |
| 20260507073115 | 10 | 248 | 0.0 | 1.6 | 0.00 | 0.00 | 0.00 | 82 | 1029.0 |
| 20260507072616 | 10 | 270 | 3.2 | 4.8 | 0.00 | 0.00 | 0.00 | 82 | 1029.0 |
| 20260507072114 | 10 | 293 | 4.8 | 6.4 | 0.00 | 0.00 | 0.00 | 82 | 1029.0 |
| 20260507071615 | 10 | 158 | 1.6 | 3.2 | 0.00 | 0.00 | 0.00 | 82 | 1029.0 |
| 20260507071115 | 11 | 293 | 1.6 | 3.2 | 0.00 | 0.00 | 0.00 | 82 | 1028.0 |
| 20260507070616 | 11 | 225 | 0.0 | 1.6 | 0.00 | 0.00 | 0.00 | 82 | 1029.0 |
| 20260507070116 | 11 | 248 | 0.0 | 0.0 | 0.00 | 0.00 | 0.00 | 83 | 1029.0 |
| 20260507065614 | 11 | 270 | 0.0 | 0.0 | 0.00 | 0.00 | 0.00 | 83 | 1029.0 |
| 20260507065115 | 11 | 225 | 0.0 | 1.6 | 0.00 | 0.00 | 0.00 | 83 | 1029.0 |
| 20260507064615 | 11 | 293 | 1.6 | 1.6 | 0.00 | 0.00 | 0.00 | 82 | 1029.0 |
| 20260507064115 | 11 | 270 | 3.2 | 3.2 | 0.00 | 0.00 | 0.00 | 83 | 1029.0 |
| 20260507063614 | 11 | 248 | 4.8 | 8.0 | 0.00 | 0.00 | 0.00 | 83 | 1029.0 |
| 20260507063114 | 11 | 270 | 3.2 | 4.8 | 0.00 | 0.00 | 0.00 | 84 | 1029.0 |
| 20260507062615 | 11 | 270 | 3.2 | 3.2 | 0.00 | 0.00 | 0.00 | 84 | 1028.0 |
| 20260507062115 | 11 | 270 | 4.8 | 6.4 | 0.00 | 0.00 | 0.00 | 83 | 1028.0 |
| 20260507061615 | 11 | 338 | 3.2 | 4.8 | 0.00 | 0.00 | 0.00 | 83 | 1029.0 |
| 20260507061114 | 11 | 248 | 0.0 | 1.6 | 0.00 | 0.00 | 0.00 | 84 | 1029.0 |
| 20260507060614 | 11 | 203 | 0.0 | 3.2 | 0.00 | 0.00 | 0.00 | 84 | 1028.0 |
| 20260507060114 | 11 | 90 | 0.0 | 0.0 | 0.00 | 0.00 | 0.00 | 84 | 1029.0 |
| 20260507055614 | 11 | 315 | 0.0 | 1.6 | 0.00 | 0.00 | 0.00 | 84 | 1028.0 |
| 20260507055115 | 11 | 293 | 3.2 | 3.2 | 0.00 | 0.00 | 0.00 | 84 | 1029.0 |
| 20260507054615 | 11 | 293 | 0.0 | 1.6 | 0.00 | 0.00 | 0.00 | 84 | 1029.0 |
| 20260507054115 | 11 | 248 | 1.6 | 3.2 | 0.00 | 0.00 | 0.00 | 83 | 1028.0 |
| 20260507053614 | 11 | 270 | 0.0 | 1.6 | 0.00 | 0.00 | 0.00 | 83 | 1029.0 |
| 20260507053115 | 11 | 293 | 0.0 | 0.0 | 0.00 | 0.00 | 0.00 | 83 | 1029.0 |
| 20260507052614 | 11 | 270 | 1.6 | 3.2 | 0.00 | 0.00 | 0.00 | 83 | 1029.0 |
| 20260507052114 | 11 | 135 | 0.0 | 0.0 | 0.00 | 0.00 | 0.00 | 82 | 1029.0 |
| 20260507051615 | 11 | 158 | 0.0 | 1.6 | 0.00 | 0.00 | 0.00 | 83 | 1029.0 |
| 20260507051115 | 11 | 270 | 1.6 | 3.2 | 0.00 | 0.00 | 0.00 | 82 | 1029.0 |
| 20260507050615 | 11 | 270 | 3.2 | 3.2 | 0.00 | 0.00 | 0.00 | 82 | 1029.0 |
| 20260507050114 | 11 | 270 | 4.8 | 6.4 | 0.00 | 0.00 | 0.00 | 82 | 1029.0 |
| 20260507045616 | 11 | 293 | 4.8 | 6.4 | 0.00 | 0.00 | 0.00 | 82 | 1029.0 |
| 20260507045115 | 11 | 293 | 1.6 | 3.2 | 0.00 | 0.00 | 0.00 | 82 | 1029.0 |
| 20260507044614 | 11 | 180 | 3.2 | 3.2 | 0.00 | 0.00 | 0.00 | 82 | 1029.0 |
| 20260507044114 | 12 | 270 | 4.8 | 6.4 | 0.00 | 0.00 | 0.00 | 83 | 1029.0 |
| 20260507043615 | 12 | 248 | 3.2 | 6.4 | 0.00 | 0.00 | 0.00 | 83 | 1029.0 |
| 20260507043116 | 12 | 248 | 3.2 | 3.2 | 0.00 | 0.00 | 0.00 | 83 | 1029.0 |
| 20260507042614 | 12 | 225 | 1.6 | 3.2 | 0.00 | 0.00 | 0.00 | 83 | 1029.0 |
| 20260507042115 | 12 | 248 | 6.4 | 6.4 | 0.00 | 0.00 | 0.00 | 82 | 1029.0 |
| 20260507041614 | 12 | 248 | 3.2 | 4.8 | 0.00 | 0.00 | 0.00 | 83 | 1029.0 |
| 20260507041114 | 12 | 248 | 4.8 | 6.4 | 0.00 | 0.00 | 0.00 | 83 | 1029.0 |
| 20260507040615 | 12 | 270 | 3.2 | 3.2 | 0.00 | 0.00 | 0.00 | 83 | 1029.0 |
| 20260507040115 | 12 | 248 | 1.6 | 3.2 | 0.00 | 0.00 | 0.00 | 83 | 1029.0 |
| 20260507035615 | 12 | 270 | 3.2 | 3.2 | 0.00 | 0.00 | 0.00 | 82 | 1028.0 |
| 20260507035116 | 12 | 248 | 0.0 | 1.6 | 0.00 | 0.00 | 0.00 | 82 | 1029.0 |
| 20260507034614 | 12 | 248 | 1.6 | 3.2 | 0.00 | 0.00 | 0.00 | 82 | 1028.0 |
| 20260507034114 | 12 | 248 | 3.2 | 3.2 | 0.00 | 0.00 | 0.00 | 82 | 1029.0 |
| 20260507033614 | 12 | 225 | 0.0 | 3.2 | 0.00 | 0.00 | 0.00 | 81 | 1028.0 |
| 20260507033116 | 12 | 225 | 3.2 | 3.2 | 0.00 | 0.00 | 0.00 | 81 | 1028.0 |
| 20260507032615 | 12 | 315 | 4.8 | 6.4 | 0.00 | 0.00 | 0.00 | 81 | 1028.0 |
| 20260507032115 | 12 | 293 | 3.2 | 3.2 | 0.00 | 0.00 | 0.00 | 81 | 1028.0 |
| 20260507031615 | 12 | 270 | 3.2 | 3.2 | 0.00 | 0.00 | 0.00 | 80 | 1028.0 |
| 20260507031114 | 12 | 270 | 3.2 | 4.8 | 0.00 | 0.00 | 0.00 | 80 | 1028.0 |
| 20260507030614 | 12 | 270 | 4.8 | 8.0 | 0.00 | 0.00 | 0.00 | 80 | 1028.0 |
| 20260507030115 | 12 | 248 | 4.8 | 8.0 | 0.00 | 0.00 | 0.00 | 80 | 1028.0 |
| 20260507025614 | 13 | 293 | 4.8 | 6.4 | 0.00 | 0.00 | 0.00 | 79 | 1028.0 |
| 20260507025114 | 13 | 293 | 6.4 | 8.0 | 0.00 | 0.00 | 0.00 | 79 | 1028.0 |
| 20260507024614 | 13 | 338 | 4.8 | 6.4 | 0.00 | 0.00 | 0.00 | 79 | 1028.0 |
| 20260507024115 | 13 | 293 | 1.6 | 3.2 | 0.00 | 0.00 | 0.00 | 78 | 1028.0 |
| 20260507023614 | 13 | 315 | 6.4 | 8.0 | 0.00 | 0.00 | 0.00 | 78 | 1028.0 |
| 20260507023114 | 13 | 248 | 0.0 | 1.6 | 0.00 | 0.00 | 0.00 | 78 | 1028.0 |
| 20260507022614 | 13 | 270 | 3.2 | 3.2 | 0.00 | 0.00 | 0.00 | 79 | 1028.0 |
| 20260507022115 | 13 | 248 | 8.0 | 11.3 | 0.00 | 0.00 | 0.00 | 78 | 1028.0 |
| 20260507021615 | 14 | 293 | 3.2 | 8.0 | 0.00 | 0.00 | 0.00 | 78 | 1028.0 |
| 20260507021115 | 14 | 293 | 3.2 | 3.2 | 0.00 | 0.00 | 0.00 | 78 | 1028.0 |
| 20260507020614 | 14 | 158 | 6.4 | 8.0 | 0.00 | 0.00 | 0.00 | 78 | 1028.0 |
| 20260507020115 | 14 | 203 | 4.8 | 8.0 | 0.00 | 0.00 | 0.00 | 78 | 1028.0 |
| 20260507015614 | 14 | 315 | 4.8 | 6.4 | 0.00 | 0.00 | 0.00 | 77 | 1028.0 |
| 20260507015115 | 15 | 293 | 3.2 | 4.8 | 0.00 | 0.00 | 0.00 | 78 | 1028.0 |
| 20260507014615 | 15 | 293 | 11.3 | 11.3 | 0.00 | 0.00 | 0.00 | 76 | 1028.0 |
| 20260507014115 | 15 | 270 | 6.4 | 8.0 | 0.00 | 0.00 | 0.00 | 76 | 1028.0 |
| 20260507013615 | 15 | 293 | 1.6 | 3.2 | 0.00 | 0.00 | 0.00 | 76 | 1028.0 |
| 20260507013115 | 15 | 293 | 4.8 | 4.8 | 0.00 | 0.00 | 0.00 | 75 | 1028.0 |
| 20260507012615 | 15 | 293 | 3.2 | 4.8 | 0.00 | 0.00 | 0.00 | 74 | 1028.0 |
| 20260507012115 | 15 | 270 | 3.2 | 3.2 | 0.00 | 0.00 | 0.00 | 74 | 1028.0 |
| 20260507011615 | 15 | 315 | 4.8 | 8.0 | 0.00 | 0.00 | 0.00 | 72 | 1028.0 |
| 20260507011114 | 16 | 315 | 4.8 | 6.4 | 0.00 | 0.00 | 0.00 | 73 | 1028.0 |
| 20260507010615 | 16 | 248 | 4.8 | 8.0 | 0.00 | 0.00 | 0.00 | 72 | 1028.0 |
| 20260507010114 | 16 | 158 | 1.6 | 3.2 | 0.00 | 0.00 | 0.00 | 72 | 1028.0 |
| 20260507005614 | 16 | 270 | 4.8 | 6.4 | 0.00 | 0.00 | 0.00 | 71 | 1028.0 |
| 20260507005114 | 16 | 293 | 4.8 | 8.0 | 0.00 | 0.00 | 0.00 | 72 | 1028.0 |
| 20260507004615 | 16 | 270 | 4.8 | 4.8 | 0.00 | 0.00 | 0.00 | 70 | 1028.0 |
| 20260507004114 | 16 | 45 | 3.2 | 3.2 | 0.00 | 0.00 | 0.00 | 69 | 1028.0 |
| 20260507003615 | 16 | 225 | 0.0 | 3.2 | 0.00 | 0.00 | 0.00 | 71 | 1028.0 |
| 20260507003115 | 16 | 270 | 6.4 | 8.0 | 0.00 | 0.00 | 0.00 | 69 | 1028.0 |
| 20260507002615 | 16 | 293 | 3.2 | 3.2 | 0.00 | 0.00 | 0.00 | 70 | 1028.0 |
| 20260507002115 | 16 | 293 | 4.8 | 8.0 | 0.00 | 0.00 | 0.00 | 68 | 1028.0 |
| 20260507001614 | 17 | 315 | 3.2 | 4.8 | 0.00 | 0.00 | 0.00 | 66 | 1028.0 |
| 20260507001115 | 17 | 248 | 6.4 | 6.4 | 0.00 | 0.00 | 0.00 | 66 | 1028.0 |
| 20260506184115 | 12 | 45 | 0.0 | 1.6 | 0.00 | 0.00 | 0.00 | 88 | 1028.0 |
| 20260506183615 | 12 | 293 | 4.8 | 4.8 | 0.00 | 0.00 | 0.00 | 88 | 1028.0 |
| 20260506183115 | 12 | 270 | 3.2 | 4.8 | 0.00 | 0.00 | 0.00 | 88 | 1028.0 |
| 20260506182615 | 12 | 315 | 8.0 | 8.0 | 0.00 | 0.00 | 0.00 | 88 | 1028.0 |
| 20260506182114 | 13 | 225 | 1.6 | 3.2 | 0.00 | 0.00 | 0.00 | 87 | 1028.0 |
| 20260506181615 | 12 | 45 | 0.0 | 0.0 | 0.00 | 0.00 | 0.00 | 88 | 1028.0 |
| 20260506181114 | 12 | 315 | 0.0 | 1.6 | 0.00 | 0.00 | 0.00 | 88 | 1028.0 |
| 20260506180615 | 12 | 225 | 3.2 | 4.8 | 0.00 | 0.00 | 0.00 | 89 | 1028.0 |
| 20260506180115 | 12 | 248 | 4.8 | 6.4 | 0.00 | 0.00 | 0.00 | 89 | 1028.0 |
| 20260506175615 | 12 | 248 | 0.0 | 3.2 | 0.00 | 0.00 | 0.00 | 89 | 1028.0 |
| 20260506175115 | 12 | 293 | 3.2 | 4.8 | 0.00 | 0.00 | 0.00 | 88 | 1028.0 |
| 20260506174614 | 12 | 158 | 0.0 | 1.6 | 0.00 | 0.00 | 0.00 | 88 | 1028.0 |
| 20260506174115 | 12 | 315 | 1.6 | 3.2 | 0.00 | 0.00 | 0.00 | 89 | 1028.0 |
| 20260506173615 | 12 | 338 | 0.0 | 1.6 | 0.00 | 0.00 | 0.00 | 89 | 1028.0 |
| 20260506173115 | 12 | 23 | 3.2 | 3.2 | 0.00 | 0.00 | 0.00 | 89 | 1028.0 |
| 20260506172615 | 12 | 270 | 3.2 | 3.2 | 0.00 | 0.00 | 0.00 | 89 | 1028.0 |
| 20260506172115 | 12 | 338 | 1.6 | 3.2 | 0.00 | 0.00 | 0.00 | 90 | 1028.0 |
| 20260506171615 | 12 | 23 | 0.0 | 1.6 | 0.00 | 0.00 | 0.00 | 90 | 1028.0 |
| 20260506171114 | 12 | 45 | 0.0 | 1.6 | 0.00 | 0.00 | 0.00 | 91 | 1028.0 |
| 20260506170615 | 12 | 203 | 0.0 | 1.6 | 0.00 | 0.00 | 0.00 | 91 | 1028.0 |
| 20260506170115 | 12 | 293 | 3.2 | 3.2 | 0.00 | 0.00 | 0.00 | 91 | 1028.0 |
| 20260506165614 | 12 | 270 | 3.2 | 3.2 | 0.00 | 0.00 | 0.00 | 91 | 1028.0 |
| 20260506165115 | 12 | 158 | 0.0 | 0.0 | 0.00 | 0.00 | 0.00 | 91 | 1028.0 |
| 20260506164615 | 12 | 293 | 1.6 | 1.6 | 0.00 | 0.00 | 0.00 | 91 | 1028.0 |
| 20260506164114 | 11 | 113 | 0.0 | 0.0 | 0.00 | 0.00 | 0.00 | 92 | 1028.0 |
| 20260506163615 | 11 | 225 | 3.2 | 3.2 | 0.00 | 0.00 | 0.00 | 92 | 1028.0 |
| 20260506163114 | 11 | 248 | 1.6 | 3.2 | 0.00 | 0.00 | 0.00 | 92 | 1028.0 |
| 20260506162614 | 11 | 68 | 1.6 | 3.2 | 0.00 | 0.00 | 0.00 | 92 | 1028.0 |
| 20260506162115 | 11 | 45 | 1.6 | 3.2 | 0.00 | 0.00 | 0.00 | 91 | 1028.0 |
| 20260506161615 | 11 | 45 | 1.6 | 3.2 | 0.00 | 0.00 | 0.00 | 92 | 1028.0 |
| 20260506161115 | 11 | 23 | 1.6 | 3.2 | 0.00 | 0.00 | 0.00 | 92 | 1028.0 |
| 20260506160615 | 11 | 113 | 0.0 | 0.0 | 0.00 | 0.00 | 0.00 | 92 | 1028.0 |
| 20260506160115 | 11 | 68 | 1.6 | 3.2 | 0.00 | 0.00 | 0.00 | 93 | 1028.0 |
| 20260506155615 | 11 | 113 | 0.0 | 0.0 | 0.00 | 0.00 | 0.00 | 93 | 1028.0 |
| 20260506155115 | 11 | 0 | 1.6 | 3.2 | 0.00 | 0.00 | 0.00 | 93 | 1028.0 |
| 20260506154615 | 11 | 293 | 1.6 | 3.2 | 0.00 | 0.00 | 0.00 | 94 | 1028.0 |
| 20260506154116 | 11 | 315 | 0.0 | 1.6 | 0.00 | 0.00 | 0.00 | 95 | 1028.0 |
| 20260506153615 | 11 | 338 | 1.6 | 3.2 | 0.00 | 0.00 | 0.00 | 95 | 1028.0 |
| 20260506153115 | 11 | 23 | 0.0 | 0.0 | 0.00 | 0.00 | 0.00 | 96 | 1028.0 |
| 20260506152615 | 11 | 293 | 3.2 | 3.2 | 0.00 | 0.00 | 0.00 | 96 | 1028.0 |
| 20260506152114 | 11 | 225 | 0.0 | 0.0 | 0.00 | 0.00 | 0.00 | 96 | 1027.0 |
| 20260506151615 | 11 | 293 | 3.2 | 3.2 | 0.00 | 0.00 | 0.00 | 95 | 1028.0 |
| 20260506151114 | 11 | 135 | 0.0 | 0.0 | 0.00 | 0.00 | 0.00 | 95 | 1027.0 |
| 20260506150615 | 11 | 135 | 0.0 | 0.0 | 0.00 | 0.00 | 0.00 | 96 | 1027.0 |
| 20260506150116 | 11 | 90 | 1.6 | 3.2 | 0.00 | 0.00 | 0.00 | 97 | 1027.0 |
| 20260506145615 | 11 | 90 | 0.0 | 1.6 | 0.00 | 0.00 | 0.00 | 97 | 1027.0 |
| 20260506145115 | 11 | 158 | 0.0 | 0.0 | 0.00 | 0.00 | 0.00 | 97 | 1027.0 |
| 20260506144615 | 11 | 90 | 0.0 | 1.6 | 0.00 | 0.00 | 0.00 | 97 | 1027.0 |
| 20260506144114 | 11 | 158 | 0.0 | 0.0 | 0.00 | 0.00 | 0.00 | 97 | 1027.0 |
| 20260506143617 | 11 | 113 | 0.0 | 0.0 | 0.00 | 0.00 | 0.00 | 97 | 1027.0 |
| 20260506143115 | 11 | 113 | 0.0 | 0.0 | 0.00 | 0.00 | 0.00 | 97 | 1028.0 |
| 20260506142616 | 11 | 0 | 0.0 | 0.0 | 0.00 | 0.00 | 0.00 | 97 | 1027.0 |
| 20260506142115 | 11 | 180 | 0.0 | 0.0 | 0.00 | 0.00 | 0.00 | 96 | 1028.0 |
| 20260506141615 | 11 | 113 | 0.0 | 0.0 | 0.00 | 0.00 | 0.00 | 97 | 1028.0 |
| 20260506141115 | 11 | 113 | 0.0 | 1.6 | 0.00 | 0.00 | 0.00 | 96 | 1028.0 |
| 20260506140615 | 11 | 45 | 1.6 | 3.2 | 0.00 | 0.00 | 0.00 | 96 | 1027.0 |
| 20260506140116 | 11 | 68 | 0.0 | 0.0 | 0.00 | 0.00 | 0.00 | 96 | 1027.0 |
| 20260506135614 | 11 | 68 | 0.0 | 1.6 | 0.00 | 0.00 | 0.00 | 96 | 1027.0 |
| 20260506135115 | 11 | 0 | 0.0 | 0.0 | 0.00 | 0.00 | 0.00 | 96 | 1027.0 |
| 20260506134616 | 11 | 248 | 1.6 | 3.2 | 0.00 | 0.00 | 0.00 | 96 | 1027.0 |
| 20260506134115 | 11 | 293 | 1.6 | 1.6 | 0.00 | 0.00 | 0.00 | 96 | 1027.0 |
| 20260506133615 | 11 | 135 | 0.0 | 0.0 | 0.00 | 0.00 | 0.00 | 96 | 1027.0 |
| 20260506133115 | 11 | 113 | 0.0 | 0.0 | 0.00 | 0.00 | 0.00 | 96 | 1027.0 |
| 20260506132614 | 11 | 68 | 0.0 | 0.0 | 0.00 | 0.00 | 0.00 | 96 | 1027.0 |
| 20260506132116 | 11 | 135 | 0.0 | 0.0 | 0.00 | 0.00 | 0.00 | 96 | 1027.0 |
| 20260506131615 | 11 | 270 | 0.0 | 0.0 | 0.00 | 0.00 | 0.00 | 96 | 1027.0 |
| 20260506131115 | 11 | 293 | 0.0 | 1.6 | 0.00 | 0.00 | 0.00 | 95 | 1027.0 |
| 20260506130616 | 11 | 203 | 0.0 | 0.0 | 0.00 | 0.00 | 0.00 | 96 | 1027.0 |
| 20260506130116 | 11 | 293 | 0.0 | 0.0 | 0.00 | 0.00 | 0.00 | 96 | 1027.0 |
| 20260506125614 | 11 | 90 | 0.0 | 0.0 | 0.00 | 0.00 | 0.00 | 96 | 1027.0 |
| 20260506125114 | 11 | 90 | 0.0 | 0.0 | 0.00 | 0.00 | 0.00 | 96 | 1027.0 |
| 20260506124614 | 11 | 90 | 0.0 | 0.0 | 0.00 | 0.00 | 0.00 | 96 | 1027.0 |
| 20260506124115 | 11 | 23 | 0.0 | 0.0 | 0.00 | 0.00 | 0.00 | 96 | 1027.0 |
| 20260506123615 | 11 | 68 | 0.0 | 0.0 | 0.00 | 0.00 | 0.00 | 96 | 1027.0 |
| 20260506123115 | 11 | 113 | 0.0 | 0.0 | 0.00 | 0.00 | 0.00 | 96 | 1027.0 |
| 20260506122614 | 11 | 113 | 0.0 | 0.0 | 0.00 | 0.00 | 0.00 | 96 | 1026.0 |
| 20260506122115 | 11 | 248 | 1.6 | 1.6 | 0.00 | 0.00 | 0.00 | 96 | 1026.0 |
| 20260506121614 | 11 | 158 | 0.0 | 0.0 | 0.00 | 0.00 | 0.00 | 96 | 1026.0 |
| 20260506121114 | 11 | 113 | 0.0 | 0.0 | 0.00 | 0.00 | 0.00 | 96 | 1026.0 |
| 20260506120614 | 11 | 68 | 0.0 | 0.0 | 0.00 | 0.00 | 0.00 | 96 | 1026.0 |
| 20260506120115 | 11 | 135 | 0.0 | 0.0 | 0.00 | 0.00 | 0.00 | 96 | 1026.0 |
| 20260506115615 | 11 | 203 | 0.0 | 0.0 | 0.00 | 0.00 | 0.00 | 96 | 1026.0 |
| 20260506115114 | 11 | 225 | 3.2 | 4.8 | 0.00 | 0.00 | 0.00 | 96 | 1026.0 |
| 20260506114615 | 11 | 248 | 1.6 | 3.2 | 0.00 | 0.00 | 0.00 | 97 | 1027.0 |
| 20260506114115 | 11 | 270 | 1.6 | 3.2 | 0.00 | 0.00 | 0.00 | 97 | 1026.0 |
| 20260506113614 | 11 | 68 | 0.0 | 0.0 | 0.00 | 0.00 | 0.00 | 97 | 1026.0 |
| 20260506113114 | 11 | 113 | 0.0 | 0.0 | 0.00 | 0.00 | 0.00 | 97 | 1026.0 |
| 20260506112614 | 11 | 90 | 0.0 | 0.0 | 0.00 | 0.00 | 0.00 | 97 | 1026.0 |
| 20260506112114 | 11 | 135 | 0.0 | 0.0 | 0.00 | 0.00 | 0.00 | 97 | 1026.0 |
| 20260506111614 | 11 | 90 | 0.0 | 0.0 | 0.00 | 0.00 | 0.00 | 97 | 1026.0 |
| 20260506111115 | 11 | 135 | 0.0 | 0.0 | 0.00 | 0.00 | 0.00 | 97 | 1026.0 |
| 20260506110615 | 11 | 90 | 0.0 | 0.0 | 0.00 | 0.00 | 0.00 | 96 | 1026.0 |